Accueil
METAR-TAF:

METAR-TAF

Aéroports :

Ruby, Alaska, États-Unis

latitude: 64-43-38N, longitude: 155-28-12W, altitude: 201 m

Observation

Le bulletin a été fait il y a 18 minutes, à 04:56 UTC
Vent 21 kt de est avec des rafales jusqu'à 28 kt
Température -11°C
Humidité 78%
Pression 990 hPa
Visibilité: 8.0 km
Ciel couvert à une hauteur de 9000 ft
neige faible

METAR: PARY 080456Z AUTO 09021G28KT 5SM -SN OVC090 M11/M14 A2924 RMK AO2 PK WND 09033/0442 SNB0357 SLP919 P0000 T11111139 FZRANO

Heure: 20:14 (05:14 UTC)


TAF: absent

Observations et prévisions météorologiques de plus de 4000 aéroports (messages METAR et TAF).

Les stations disponibles sont représentées par des disques jaunes et rouges sur la carte.

Passer la souris dessus pour voir le nom de la station.

Cliquer dessus pour voir les observations et prévisions météorologiques.

Pour changer de carte: cliquez sur les boutons verts avec une croix noire pour zoomer, sur le bouton vert avec un tiret pour effectuer un zoom arrière, ou sur les flèches vertes pour les cartes adjacentes.


METAR-TAF: